sensor_id;sensor_type;location;lat;lon;timestamp;P1;durP1;ratioP1;P2;durP2;ratioP2
17253;SDS011;32542;52.832;13.816;2023-11-21T00:01:57;5.30;;;3.22;;
17253;SDS011;32542;52.832;13.816;2023-11-21T00:05:01;5.97;;;3.05;;
17253;SDS011;32542;52.832;13.816;2023-11-21T00:08:05;9.75;;;3.58;;
17253;SDS011;32542;52.832;13.816;2023-11-21T00:11:07;6.43;;;3.00;;
17253;SDS011;32542;52.832;13.816;2023-11-21T00:14:11;6.97;;;2.85;;
17253;SDS011;32542;52.832;13.816;2023-11-21T00:17:16;6.05;;;3.08;;
17253;SDS011;32542;52.832;13.816;2023-11-21T00:20:20;5.10;;;2.75;;
17253;SDS011;32542;52.832;13.816;2023-11-21T00:23:23;6.15;;;3.05;;
17253;SDS011;32542;52.832;13.816;2023-11-21T00:26:26;7.10;;;2.90;;
17253;SDS011;32542;52.832;13.816;2023-11-21T00:29:35;6.63;;;2.85;;
17253;SDS011;32542;52.832;13.816;2023-11-21T00:32:39;7.97;;;3.20;;
17253;SDS011;32542;52.832;13.816;2023-11-21T00:35:44;7.38;;;3.50;;
17253;SDS011;32542;52.832;13.816;2023-11-21T00:38:47;7.07;;;3.45;;
17253;SDS011;32542;52.832;13.816;2023-11-21T00:41:50;8.70;;;3.67;;
17253;SDS011;32542;52.832;13.816;2023-11-21T00:44:54;6.55;;;3.15;;
17253;SDS011;32542;52.832;13.816;2023-11-21T00:47:57;6.18;;;3.33;;
17253;SDS011;32542;52.832;13.816;2023-11-21T00:51:02;6.55;;;3.05;;
17253;SDS011;32542;52.832;13.816;2023-11-21T00:54:05;4.13;;;2.90;;
17253;SDS011;32542;52.832;13.816;2023-11-21T00:57:08;6.05;;;3.00;;
17253;SDS011;32542;52.832;13.816;2023-11-21T01:00:13;7.05;;;2.80;;
17253;SDS011;32542;52.832;13.816;2023-11-21T01:03:18;5.68;;;3.08;;
17253;SDS011;32542;52.832;13.816;2023-11-21T01:06:23;4.90;;;3.03;;
17253;SDS011;32542;52.832;13.816;2023-11-21T01:09:26;7.72;;;3.50;;
17253;SDS011;32542;52.832;13.816;2023-11-21T01:12:29;7.22;;;3.38;;
17253;SDS011;32542;52.832;13.816;2023-11-21T01:15:32;6.43;;;3.42;;
17253;SDS011;32542;52.832;13.816;2023-11-21T01:18:36;5.75;;;3.30;;
17253;SDS011;32542;52.832;13.816;2023-11-21T01:21:41;6.53;;;3.20;;
17253;SDS011;32542;52.832;13.816;2023-11-21T01:24:44;7.60;;;3.40;;
17253;SDS011;32542;52.832;13.816;2023-11-21T01:27:47;6.43;;;3.25;;
17253;SDS011;32542;52.832;13.816;2023-11-21T01:30:50;5.15;;;2.83;;
17253;SDS011;32542;52.832;13.816;2023-11-21T01:33:54;5.60;;;3.08;;
17253;SDS011;32542;52.832;13.816;2023-11-21T01:36:59;5.60;;;3.38;;
17253;SDS011;32542;52.832;13.816;2023-11-21T01:40:03;3.83;;;2.90;;
17253;SDS011;32542;52.832;13.816;2023-11-21T01:43:10;4.70;;;2.85;;
17253;SDS011;32542;52.832;13.816;2023-11-21T01:46:13;4.70;;;2.90;;
17253;SDS011;32542;52.832;13.816;2023-11-21T01:49:17;4.57;;;2.85;;
17253;SDS011;32542;52.832;13.816;2023-11-21T01:52:23;6.68;;;3.38;;
17253;SDS011;32542;52.832;13.816;2023-11-21T01:55:28;5.50;;;3.28;;
17253;SDS011;32542;52.832;13.816;2023-11-21T01:58:32;4.68;;;3.13;;
17253;SDS011;32542;52.832;13.816;2023-11-21T02:01:35;4.85;;;3.03;;
17253;SDS011;32542;52.832;13.816;2023-11-21T02:04:38;4.82;;;3.10;;
17253;SDS011;32542;52.832;13.816;2023-11-21T02:07:43;6.20;;;3.00;;
17253;SDS011;32542;52.832;13.816;2023-11-21T02:10:46;5.88;;;3.15;;
17253;SDS011;32542;52.832;13.816;2023-11-21T02:13:49;5.43;;;3.30;;
17253;SDS011;32542;52.832;13.816;2023-11-21T02:16:55;4.63;;;3.17;;
17253;SDS011;32542;52.832;13.816;2023-11-21T02:19:59;6.75;;;3.33;;
17253;SDS011;32542;52.832;13.816;2023-11-21T02:23:03;4.07;;;3.10;;
17253;SDS011;32542;52.832;13.816;2023-11-21T02:26:06;5.07;;;2.90;;
17253;SDS011;32542;52.832;13.816;2023-11-21T02:29:11;4.40;;;3.08;;
17253;SDS011;32542;52.832;13.816;2023-11-21T02:32:14;5.65;;;3.33;;
17253;SDS011;32542;52.832;13.816;2023-11-21T02:35:20;4.55;;;3.15;;
17253;SDS011;32542;52.832;13.816;2023-11-21T02:38:24;5.22;;;3.00;;
17253;SDS011;32542;52.832;13.816;2023-11-21T02:41:28;4.47;;;2.92;;
17253;SDS011;32542;52.832;13.816;2023-11-21T02:44:32;5.10;;;2.88;;
17253;SDS011;32542;52.832;13.816;2023-11-21T02:47:35;5.97;;;3.03;;
17253;SDS011;32542;52.832;13.816;2023-11-21T02:50:38;6.13;;;2.75;;
17253;SDS011;32542;52.832;13.816;2023-11-21T02:53:43;5.90;;;2.90;;
17253;SDS011;32542;52.832;13.816;2023-11-21T02:56:47;4.43;;;2.80;;
17253;SDS011;32542;52.832;13.816;2023-11-21T02:59:51;4.82;;;2.60;;
17253;SDS011;32542;52.832;13.816;2023-11-21T03:02:54;6.22;;;3.38;;
17253;SDS011;32542;52.832;13.816;2023-11-21T03:06:00;4.10;;;2.60;;
17253;SDS011;32542;52.832;13.816;2023-11-21T03:09:04;3.85;;;2.58;;
17253;SDS011;32542;52.832;13.816;2023-11-21T03:12:09;4.95;;;2.65;;
17253;SDS011;32542;52.832;13.816;2023-11-21T03:15:13;4.50;;;2.83;;
17253;SDS011;32542;52.832;13.816;2023-11-21T03:18:17;3.90;;;2.55;;
17253;SDS011;32542;52.832;13.816;2023-11-21T03:21:20;4.13;;;2.67;;
17253;SDS011;32542;52.832;13.816;2023-11-21T03:24:24;4.47;;;2.67;;
17253;SDS011;32542;52.832;13.816;2023-11-21T03:27:27;3.75;;;2.72;;
17253;SDS011;32542;52.832;13.816;2023-11-21T03:30:30;5.43;;;2.85;;
17253;SDS011;32542;52.832;13.816;2023-11-21T03:33:34;5.07;;;2.80;;
17253;SDS011;32542;52.832;13.816;2023-11-21T03:36:37;4.28;;;2.40;;
17253;SDS011;32542;52.832;13.816;2023-11-21T03:39:41;5.03;;;2.80;;
17253;SDS011;32542;52.832;13.816;2023-11-21T03:42:44;3.67;;;2.20;;
17253;SDS011;32542;52.832;13.816;2023-11-21T03:45:47;5.00;;;2.83;;
17253;SDS011;32542;52.832;13.816;2023-11-21T03:48:51;3.28;;;2.53;;
17253;SDS011;32542;52.832;13.816;2023-11-21T03:51:54;4.80;;;2.75;;
17253;SDS011;32542;52.832;13.816;2023-11-21T03:54:58;5.03;;;2.85;;
17253;SDS011;32542;52.832;13.816;2023-11-21T03:58:01;3.33;;;2.50;;
17253;SDS011;32542;52.832;13.816;2023-11-21T04:01:04;3.75;;;2.70;;
17253;SDS011;32542;52.832;13.816;2023-11-21T04:04:08;4.03;;;2.78;;
17253;SDS011;32542;52.832;13.816;2023-11-21T04:07:11;3.20;;;2.33;;
17253;SDS011;32542;52.832;13.816;2023-11-21T04:10:16;4.47;;;2.47;;
17253;SDS011;32542;52.832;13.816;2023-11-21T04:13:20;4.05;;;2.50;;
17253;SDS011;32542;52.832;13.816;2023-11-21T04:16:23;3.90;;;2.47;;
17253;SDS011;32542;52.832;13.816;2023-11-21T04:19:26;3.22;;;2.33;;
17253;SDS011;32542;52.832;13.816;2023-11-21T04:22:29;3.88;;;2.78;;
17253;SDS011;32542;52.832;13.816;2023-11-21T04:25:33;3.05;;;2.55;;
17253;SDS011;32542;52.832;13.816;2023-11-21T04:28:36;4.28;;;2.65;;
17253;SDS011;32542;52.832;13.816;2023-11-21T04:31:39;4.15;;;2.60;;
17253;SDS011;32542;52.832;13.816;2023-11-21T04:34:43;4.22;;;2.72;;
17253;SDS011;32542;52.832;13.816;2023-11-21T04:37:46;3.50;;;2.17;;
17253;SDS011;32542;52.832;13.816;2023-11-21T04:40:51;5.80;;;2.55;;
17253;SDS011;32542;52.832;13.816;2023-11-21T04:43:54;4.85;;;2.45;;
17253;SDS011;32542;52.832;13.816;2023-11-21T04:46:57;5.60;;;2.88;;
17253;SDS011;32542;52.832;13.816;2023-11-21T04:50:01;3.88;;;2.30;;
17253;SDS011;32542;52.832;13.816;2023-11-21T04:53:05;3.10;;;2.58;;
17253;SDS011;32542;52.832;13.816;2023-11-21T04:56:09;4.22;;;2.63;;
17253;SDS011;32542;52.832;13.816;2023-11-21T04:59:12;3.67;;;2.70;;
17253;SDS011;32542;52.832;13.816;2023-11-21T05:02:15;4.20;;;2.55;;
17253;SDS011;32542;52.832;13.816;2023-11-21T05:05:35;3.33;;;2.30;;
17253;SDS011;32542;52.832;13.816;2023-11-21T05:08:38;3.67;;;2.40;;
17253;SDS011;32542;52.832;13.816;2023-11-21T05:11:43;3.03;;;2.05;;
17253;SDS011;32542;52.832;13.816;2023-11-21T05:14:46;4.22;;;2.63;;
17253;SDS011;32542;52.832;13.816;2023-11-21T05:17:50;4.43;;;2.30;;
17253;SDS011;32542;52.832;13.816;2023-11-21T05:20:53;2.92;;;2.15;;
17253;SDS011;32542;52.832;13.816;2023-11-21T05:23:57;3.40;;;2.50;;
17253;SDS011;32542;52.832;13.816;2023-11-21T05:27:01;2.75;;;2.30;;
17253;SDS011;32542;52.832;13.816;2023-11-21T05:30:05;2.85;;;2.00;;
17253;SDS011;32542;52.832;13.816;2023-11-21T05:33:11;3.17;;;2.40;;
17253;SDS011;32542;52.832;13.816;2023-11-21T05:36:14;3.15;;;2.38;;
17253;SDS011;32542;52.832;13.816;2023-11-21T05:39:17;3.45;;;2.40;;
17253;SDS011;32542;52.832;13.816;2023-11-21T05:42:22;3.15;;;2.28;;
17253;SDS011;32542;52.832;13.816;2023-11-21T05:45:25;4.15;;;2.50;;
17253;SDS011;32542;52.832;13.816;2023-11-21T05:48:28;3.72;;;2.35;;
17253;SDS011;32542;52.832;13.816;2023-11-21T05:51:31;3.05;;;2.45;;
17253;SDS011;32542;52.832;13.816;2023-11-21T05:54:34;3.08;;;2.30;;
17253;SDS011;32542;52.832;13.816;2023-11-21T05:57:39;2.85;;;1.95;;
17253;SDS011;32542;52.832;13.816;2023-11-21T06:00:43;3.55;;;2.33;;
17253;SDS011;32542;52.832;13.816;2023-11-21T06:03:46;2.85;;;2.20;;
17253;SDS011;32542;52.832;13.816;2023-11-21T06:06:50;3.22;;;2.05;;
17253;SDS011;32542;52.832;13.816;2023-11-21T06:09:54;3.05;;;2.25;;
17253;SDS011;32542;52.832;13.816;2023-11-21T06:12:58;3.97;;;2.65;;
17253;SDS011;32542;52.832;13.816;2023-11-21T06:16:05;3.53;;;2.38;;
17253;SDS011;32542;52.832;13.816;2023-11-21T06:19:08;3.08;;;2.10;;
17253;SDS011;32542;52.832;13.816;2023-11-21T06:22:11;2.72;;;2.22;;
17253;SDS011;32542;52.832;13.816;2023-11-21T06:25:14;2.70;;;2.00;;
17253;SDS011;32542;52.832;13.816;2023-11-21T06:28:20;2.58;;;1.92;;
17253;SDS011;32542;52.832;13.816;2023-11-21T06:31:23;2.75;;;2.00;;
17253;SDS011;32542;52.832;13.816;2023-11-21T06:34:26;4.68;;;2.20;;
17253;SDS011;32542;52.832;13.816;2023-11-21T06:37:29;2.83;;;2.22;;
17253;SDS011;32542;52.832;13.816;2023-11-21T06:40:33;3.72;;;2.40;;
17253;SDS011;32542;52.832;13.816;2023-11-21T06:43:37;3.35;;;2.35;;
17253;SDS011;32542;52.832;13.816;2023-11-21T06:46:40;3.78;;;2.00;;
17253;SDS011;32542;52.832;13.816;2023-11-21T06:49:44;3.38;;;2.10;;
17253;SDS011;32542;52.832;13.816;2023-11-21T06:52:49;3.33;;;2.47;;
17253;SDS011;32542;52.832;13.816;2023-11-21T06:55:52;2.92;;;2.13;;
17253;SDS011;32542;52.832;13.816;2023-11-21T06:58:56;3.85;;;2.55;;
17253;SDS011;32542;52.832;13.816;2023-11-21T07:01:59;3.80;;;2.30;;
17253;SDS011;32542;52.832;13.816;2023-11-21T07:05:03;3.85;;;2.78;;
17253;SDS011;32542;52.832;13.816;2023-11-21T07:08:07;3.70;;;2.40;;
17253;SDS011;32542;52.832;13.816;2023-11-21T07:11:10;3.05;;;2.40;;
17253;SDS011;32542;52.832;13.816;2023-11-21T07:14:15;4.68;;;2.65;;
17253;SDS011;32542;52.832;13.816;2023-11-21T07:17:18;3.80;;;2.80;;
17253;SDS011;32542;52.832;13.816;2023-11-21T07:20:21;3.17;;;2.10;;
17253;SDS011;32542;52.832;13.816;2023-11-21T07:23:24;3.30;;;2.22;;
17253;SDS011;32542;52.832;13.816;2023-11-21T07:26:27;3.67;;;2.28;;
17253;SDS011;32542;52.832;13.816;2023-11-21T07:29:32;3.75;;;2.53;;
17253;SDS011;32542;52.832;13.816;2023-11-21T07:32:35;4.75;;;2.35;;
17253;SDS011;32542;52.832;13.816;2023-11-21T07:35:38;3.90;;;2.47;;
17253;SDS011;32542;52.832;13.816;2023-11-21T07:38:41;3.65;;;2.63;;
17253;SDS011;32542;52.832;13.816;2023-11-21T07:41:45;3.35;;;2.50;;
17253;SDS011;32542;52.832;13.816;2023-11-21T07:44:52;5.70;;;2.80;;
17253;SDS011;32542;52.832;13.816;2023-11-21T07:47:55;3.17;;;2.47;;
17253;SDS011;32542;52.832;13.816;2023-11-21T07:50:58;3.28;;;2.40;;
17253;SDS011;32542;52.832;13.816;2023-11-21T07:54:01;4.03;;;2.40;;
17253;SDS011;32542;52.832;13.816;2023-11-21T07:57:04;3.75;;;2.50;;
17253;SDS011;32542;52.832;13.816;2023-11-21T08:00:09;3.95;;;2.60;;
17253;SDS011;32542;52.832;13.816;2023-11-21T08:03:14;3.00;;;2.20;;
17253;SDS011;32542;52.832;13.816;2023-11-21T08:06:17;4.40;;;2.80;;
17253;SDS011;32542;52.832;13.816;2023-11-21T08:09:20;4.55;;;2.45;;
17253;SDS011;32542;52.832;13.816;2023-11-21T08:12:25;3.88;;;2.40;;
17253;SDS011;32542;52.832;13.816;2023-11-21T08:15:30;5.25;;;2.33;;
17253;SDS011;32542;52.832;13.816;2023-11-21T08:18:34;2.85;;;2.20;;
17253;SDS011;32542;52.832;13.816;2023-11-21T08:21:37;4.55;;;2.50;;
17253;SDS011;32542;52.832;13.816;2023-11-21T08:24:41;3.50;;;2.20;;
17253;SDS011;32542;52.832;13.816;2023-11-21T08:27:44;3.17;;;2.25;;
17253;SDS011;32542;52.832;13.816;2023-11-21T08:30:49;3.33;;;2.28;;
17253;SDS011;32542;52.832;13.816;2023-11-21T08:33:51;4.28;;;2.72;;
17253;SDS011;32542;52.832;13.816;2023-11-21T08:36:57;4.30;;;2.67;;
17253;SDS011;32542;52.832;13.816;2023-11-21T08:40:00;3.85;;;2.30;;
17253;SDS011;32542;52.832;13.816;2023-11-21T08:43:03;4.03;;;2.42;;
17253;SDS011;32542;52.832;13.816;2023-11-21T08:46:08;3.53;;;2.35;;
17253;SDS011;32542;52.832;13.816;2023-11-21T08:49:11;3.78;;;2.40;;
17253;SDS011;32542;52.832;13.816;2023-11-21T08:52:14;2.92;;;2.17;;
17253;SDS011;32542;52.832;13.816;2023-11-21T08:55:20;4.28;;;2.17;;
17253;SDS011;32542;52.832;13.816;2023-11-21T08:58:23;3.28;;;2.10;;
17253;SDS011;32542;52.832;13.816;2023-11-21T09:01:28;3.10;;;2.20;;
17253;SDS011;32542;52.832;13.816;2023-11-21T09:04:32;3.38;;;2.08;;
17253;SDS011;32542;52.832;13.816;2023-11-21T09:07:35;4.25;;;2.00;;
17253;SDS011;32542;52.832;13.816;2023-11-21T09:10:39;3.65;;;2.30;;
17253;SDS011;32542;52.832;13.816;2023-11-21T09:13:43;3.38;;;1.95;;
17253;SDS011;32542;52.832;13.816;2023-11-21T09:16:49;2.42;;;1.88;;
17253;SDS011;32542;52.832;13.816;2023-11-21T09:19:52;2.85;;;1.90;;
17253;SDS011;32542;52.832;13.816;2023-11-21T09:22:56;5.30;;;1.92;;
17253;SDS011;32542;52.832;13.816;2023-11-21T09:25:59;6.10;;;2.00;;
17253;SDS011;32542;52.832;13.816;2023-11-21T09:29:02;7.03;;;1.90;;
17253;SDS011;32542;52.832;13.816;2023-11-21T09:32:07;5.50;;;2.13;;
17253;SDS011;32542;52.832;13.816;2023-11-21T09:35:12;4.70;;;2.00;;
17253;SDS011;32542;52.832;13.816;2023-11-21T09:38:17;5.88;;;2.33;;
17253;SDS011;32542;52.832;13.816;2023-11-21T09:41:21;4.38;;;1.70;;
17253;SDS011;32542;52.832;13.816;2023-11-21T09:44:32;4.03;;;1.95;;
17253;SDS011;32542;52.832;13.816;2023-11-21T09:47:40;5.78;;;1.98;;
17253;SDS011;32542;52.832;13.816;2023-11-21T09:50:44;5.57;;;1.83;;
17253;SDS011;32542;52.832;13.816;2023-11-21T09:53:53;5.78;;;1.63;;
17253;SDS011;32542;52.832;13.816;2023-11-21T09:56:57;3.47;;;1.65;;
17253;SDS011;32542;52.832;13.816;2023-11-21T10:00:01;3.42;;;1.83;;
17253;SDS011;32542;52.832;13.816;2023-11-21T10:03:09;2.40;;;1.35;;
17253;SDS011;32542;52.832;13.816;2023-11-21T10:06:12;2.38;;;1.30;;
17253;SDS011;32542;52.832;13.816;2023-11-21T10:09:16;2.10;;;1.50;;
17253;SDS011;32542;52.832;13.816;2023-11-21T10:12:22;2.38;;;1.40;;
17253;SDS011;32542;52.832;13.816;2023-11-21T10:15:27;1.95;;;1.50;;
17253;SDS011;32542;52.832;13.816;2023-11-21T10:18:31;2.03;;;1.40;;
17253;SDS011;32542;52.832;13.816;2023-11-21T10:21:35;2.42;;;1.45;;
17253;SDS011;32542;52.832;13.816;2023-11-21T10:24:40;1.90;;;1.25;;
17253;SDS011;32542;52.832;13.816;2023-11-21T10:27:57;2.25;;;1.40;;
17253;SDS011;32542;52.832;13.816;2023-11-21T10:31:02;3.63;;;1.30;;
17253;SDS011;32542;52.832;13.816;2023-11-21T10:34:16;3.97;;;1.38;;
17253;SDS011;32542;52.832;13.816;2023-11-21T10:37:20;2.42;;;1.42;;
17253;SDS011;32542;52.832;13.816;2023-11-21T10:40:23;2.70;;;1.23;;
17253;SDS011;32542;52.832;13.816;2023-11-21T10:43:26;4.00;;;1.40;;
17253;SDS011;32542;52.832;13.816;2023-11-21T10:46:29;1.65;;;1.38;;
17253;SDS011;32542;52.832;13.816;2023-11-21T10:49:34;2.35;;;1.30;;
17253;SDS011;32542;52.832;13.816;2023-11-21T10:52:41;1.80;;;1.35;;
17253;SDS011;32542;52.832;13.816;2023-11-21T10:55:48;1.38;;;1.27;;
17253;SDS011;32542;52.832;13.816;2023-11-21T10:58:51;1.40;;;1.27;;
17253;SDS011;32542;52.832;13.816;2023-11-21T11:01:55;4.88;;;1.30;;
17253;SDS011;32542;52.832;13.816;2023-11-21T11:05:04;1.73;;;1.40;;
17253;SDS011;32542;52.832;13.816;2023-11-21T11:08:13;1.58;;;1.20;;
17253;SDS011;32542;52.832;13.816;2023-11-21T11:11:20;2.45;;;1.13;;
17253;SDS011;32542;52.832;13.816;2023-11-21T11:14:23;2.13;;;1.23;;
17253;SDS011;32542;52.832;13.816;2023-11-21T11:17:28;1.60;;;1.10;;
17253;SDS011;32542;52.832;13.816;2023-11-21T11:20:36;2.15;;;1.33;;
17253;SDS011;32542;52.832;13.816;2023-11-21T11:23:45;1.60;;;1.13;;
17253;SDS011;32542;52.832;13.816;2023-11-21T11:26:58;2.33;;;1.20;;
17253;SDS011;32542;52.832;13.816;2023-11-21T11:30:15;1.23;;;1.00;;
17253;SDS011;32542;52.832;13.816;2023-11-21T11:33:31;1.38;;;1.05;;
17253;SDS011;32542;52.832;13.816;2023-11-21T11:36:42;3.20;;;1.20;;
17253;SDS011;32542;52.832;13.816;2023-11-21T11:39:51;1.30;;;1.20;;
17253;SDS011;32542;52.832;13.816;2023-11-21T11:42:56;1.75;;;1.30;;
17253;SDS011;32542;52.832;13.816;2023-11-21T11:46:02;1.33;;;1.13;;
17253;SDS011;32542;52.832;13.816;2023-11-21T11:49:06;1.70;;;0.98;;
17253;SDS011;32542;52.832;13.816;2023-11-21T11:55:36;2.10;;;1.40;;
17253;SDS011;32542;52.832;13.816;2023-11-21T11:58:39;1.67;;;1.20;;
17253;SDS011;32542;52.832;13.816;2023-11-21T12:01:44;1.63;;;1.20;;
17253;SDS011;32542;52.832;13.816;2023-11-21T12:04:49;2.13;;;1.02;;
17253;SDS011;32542;52.832;13.816;2023-11-21T12:07:54;1.95;;;1.38;;
17253;SDS011;32542;52.832;13.816;2023-11-21T12:10:58;2.63;;;1.25;;
17253;SDS011;32542;52.832;13.816;2023-11-21T12:14:03;1.33;;;1.13;;
17253;SDS011;32542;52.832;13.816;2023-11-21T12:17:08;2.88;;;1.40;;
17253;SDS011;32542;52.832;13.816;2023-11-21T12:20:11;1.38;;;1.20;;
17253;SDS011;32542;52.832;13.816;2023-11-21T12:23:20;1.88;;;1.30;;
17253;SDS011;32542;52.832;13.816;2023-11-21T12:26:23;1.85;;;1.20;;
17253;SDS011;32542;52.832;13.816;2023-11-21T12:29:26;1.02;;;0.93;;
17253;SDS011;32542;52.832;13.816;2023-11-21T12:32:31;2.40;;;1.40;;
17253;SDS011;32542;52.832;13.816;2023-11-21T12:35:35;3.90;;;1.55;;
17253;SDS011;32542;52.832;13.816;2023-11-21T12:38:40;3.20;;;1.60;;
17253;SDS011;32542;52.832;13.816;2023-11-21T12:41:43;1.83;;;1.20;;
17253;SDS011;32542;52.832;13.816;2023-11-21T12:44:47;7.57;;;1.48;;
17253;SDS011;32542;52.832;13.816;2023-11-21T12:47:50;2.25;;;1.40;;
17253;SDS011;32542;52.832;13.816;2023-11-21T12:50:54;2.83;;;1.38;;
17253;SDS011;32542;52.832;13.816;2023-11-21T12:53:59;1.58;;;1.35;;
17253;SDS011;32542;52.832;13.816;2023-11-21T12:57:02;1.70;;;1.30;;
17253;SDS011;32542;52.832;13.816;2023-11-21T13:00:10;2.83;;;1.58;;
17253;SDS011;32542;52.832;13.816;2023-11-21T13:03:28;2.42;;;1.77;;
17253;SDS011;32542;52.832;13.816;2023-11-21T13:06:32;3.30;;;1.50;;
17253;SDS011;32542;52.832;13.816;2023-11-21T13:09:41;2.47;;;1.60;;
17253;SDS011;32542;52.832;13.816;2023-11-21T13:12:44;2.55;;;1.50;;
17253;SDS011;32542;52.832;13.816;2023-11-21T13:15:50;4.25;;;2.35;;
17253;SDS011;32542;52.832;13.816;2023-11-21T13:18:54;6.55;;;1.58;;
17253;SDS011;32542;52.832;13.816;2023-11-21T13:21:57;2.97;;;1.40;;
17253;SDS011;32542;52.832;13.816;2023-11-21T13:25:01;2.83;;;1.60;;
17253;SDS011;32542;52.832;13.816;2023-11-21T13:28:08;3.53;;;2.30;;
17253;SDS011;32542;52.832;13.816;2023-11-21T13:31:12;3.75;;;1.45;;
17253;SDS011;32542;52.832;13.816;2023-11-21T13:34:28;3.22;;;1.60;;
17253;SDS011;32542;52.832;13.816;2023-11-21T13:37:34;2.83;;;1.60;;
17253;SDS011;32542;52.832;13.816;2023-11-21T13:40:39;4.68;;;1.55;;
17253;SDS011;32542;52.832;13.816;2023-11-21T13:43:47;3.47;;;2.10;;
17253;SDS011;32542;52.832;13.816;2023-11-21T13:46:58;3.95;;;1.70;;
17253;SDS011;32542;52.832;13.816;2023-11-21T13:50:01;3.50;;;1.70;;
17253;SDS011;32542;52.832;13.816;2023-11-21T13:53:05;3.17;;;1.88;;
17253;SDS011;32542;52.832;13.816;2023-11-21T13:56:19;3.10;;;2.03;;
17253;SDS011;32542;52.832;13.816;2023-11-21T13:59:26;3.25;;;2.10;;
17253;SDS011;32542;52.832;13.816;2023-11-21T14:02:31;4.18;;;1.73;;
17253;SDS011;32542;52.832;13.816;2023-11-21T14:05:41;3.60;;;2.05;;
17253;SDS011;32542;52.832;13.816;2023-11-21T14:08:44;14.57;;;2.00;;
17253;SDS011;32542;52.832;13.816;2023-11-21T14:11:51;3.25;;;1.50;;
17253;SDS011;32542;52.832;13.816;2023-11-21T14:14:55;5.00;;;1.70;;
17253;SDS011;32542;52.832;13.816;2023-11-21T14:17:58;2.58;;;1.80;;
17253;SDS011;32542;52.832;13.816;2023-11-21T14:21:04;6.47;;;1.80;;
17253;SDS011;32542;52.832;13.816;2023-11-21T14:24:09;3.08;;;1.45;;
17253;SDS011;32542;52.832;13.816;2023-11-21T14:27:15;2.53;;;1.80;;
17253;SDS011;32542;52.832;13.816;2023-11-21T14:30:18;5.43;;;1.90;;
17253;SDS011;32542;52.832;13.816;2023-11-21T14:33:24;5.00;;;1.73;;
17253;SDS011;32542;52.832;13.816;2023-11-21T14:36:26;3.63;;;1.65;;
17253;SDS011;32542;52.832;13.816;2023-11-21T14:39:30;1.77;;;1.65;;
17253;SDS011;32542;52.832;13.816;2023-11-21T14:42:38;5.78;;;1.95;;
17253;SDS011;32542;52.832;13.816;2023-11-21T14:45:41;5.93;;;1.63;;
17253;SDS011;32542;52.832;13.816;2023-11-21T14:48:44;3.00;;;1.48;;
17253;SDS011;32542;52.832;13.816;2023-11-21T14:51:56;4.07;;;1.70;;
17253;SDS011;32542;52.832;13.816;2023-11-21T14:55:04;1.85;;;1.60;;
17253;SDS011;32542;52.832;13.816;2023-11-21T14:58:24;6.55;;;1.90;;
17253;SDS011;32542;52.832;13.816;2023-11-21T15:01:30;10.20;;;2.20;;
17253;SDS011;32542;52.832;13.816;2023-11-21T15:04:46;12.95;;;2.60;;
17253;SDS011;32542;52.832;13.816;2023-11-21T15:07:49;14.48;;;3.10;;
17253;SDS011;32542;52.832;13.816;2023-11-21T15:10:56;7.18;;;2.40;;
17253;SDS011;32542;52.832;13.816;2023-11-21T15:14:00;6.78;;;2.50;;
17253;SDS011;32542;52.832;13.816;2023-11-21T15:17:08;9.18;;;2.50;;
17253;SDS011;32542;52.832;13.816;2023-11-21T15:20:11;6.97;;;2.25;;
17253;SDS011;32542;52.832;13.816;2023-11-21T15:23:20;5.60;;;2.85;;
17253;SDS011;32542;52.832;13.816;2023-11-21T15:26:23;11.02;;;3.50;;
17253;SDS011;32542;52.832;13.816;2023-11-21T15:29:32;6.38;;;3.80;;
17253;SDS011;32542;52.832;13.816;2023-11-21T15:32:35;12.73;;;3.97;;
17253;SDS011;32542;52.832;13.816;2023-11-21T15:35:38;7.25;;;4.47;;
17253;SDS011;32542;52.832;13.816;2023-11-21T15:38:43;10.20;;;4.50;;
17253;SDS011;32542;52.832;13.816;2023-11-21T15:41:46;11.38;;;4.90;;
17253;SDS011;32542;52.832;13.816;2023-11-21T15:44:50;8.23;;;5.60;;
17253;SDS011;32542;52.832;13.816;2023-11-21T15:47:53;10.30;;;6.25;;
17253;SDS011;32542;52.832;13.816;2023-11-21T15:50:57;7.07;;;5.47;;
17253;SDS011;32542;52.832;13.816;2023-11-21T15:54:00;9.13;;;6.00;;
17253;SDS011;32542;52.832;13.816;2023-11-21T15:57:04;9.27;;;6.07;;
17253;SDS011;32542;52.832;13.816;2023-11-21T16:00:09;16.05;;;6.95;;
17253;SDS011;32542;52.832;13.816;2023-11-21T16:03:17;12.18;;;6.60;;
17253;SDS011;32542;52.832;13.816;2023-11-21T16:06:20;10.95;;;6.72;;
17253;SDS011;32542;52.832;13.816;2023-11-21T16:09:23;11.30;;;7.03;;
17253;SDS011;32542;52.832;13.816;2023-11-21T16:12:32;8.73;;;7.10;;
17253;SDS011;32542;52.832;13.816;2023-11-21T16:15:36;10.63;;;6.85;;
17253;SDS011;32542;52.832;13.816;2023-11-21T16:18:39;14.98;;;6.93;;
17253;SDS011;32542;52.832;13.816;2023-11-21T16:21:43;10.93;;;6.75;;
17253;SDS011;32542;52.832;13.816;2023-11-21T16:24:47;9.10;;;7.13;;
17253;SDS011;32542;52.832;13.816;2023-11-21T16:27:50;10.65;;;7.30;;
17253;SDS011;32542;52.832;13.816;2023-11-21T16:30:55;10.38;;;6.85;;
17253;SDS011;32542;52.832;13.816;2023-11-21T16:33:58;8.73;;;6.93;;
17253;SDS011;32542;52.832;13.816;2023-11-21T16:37:09;11.80;;;6.75;;
17253;SDS011;32542;52.832;13.816;2023-11-21T16:40:13;10.68;;;7.03;;
17253;SDS011;32542;52.832;13.816;2023-11-21T16:43:17;10.13;;;6.80;;
17253;SDS011;32542;52.832;13.816;2023-11-21T16:46:21;9.93;;;6.57;;
17253;SDS011;32542;52.832;13.816;2023-11-21T16:49:24;12.30;;;7.10;;
17253;SDS011;32542;52.832;13.816;2023-11-21T16:52:28;8.60;;;6.88;;
17253;SDS011;32542;52.832;13.816;2023-11-21T16:55:32;8.10;;;7.20;;
17253;SDS011;32542;52.832;13.816;2023-11-21T16:58:36;17.35;;;7.55;;
17253;SDS011;32542;52.832;13.816;2023-11-21T17:01:40;11.60;;;6.95;;
17253;SDS011;32542;52.832;13.816;2023-11-21T17:04:46;9.98;;;6.70;;
17253;SDS011;32542;52.832;13.816;2023-11-21T17:07:51;10.95;;;6.72;;
17253;SDS011;32542;52.832;13.816;2023-11-21T17:10:54;11.13;;;7.18;;
17253;SDS011;32542;52.832;13.816;2023-11-21T17:13:57;9.18;;;6.78;;
17253;SDS011;32542;52.832;13.816;2023-11-21T17:17:04;7.25;;;6.53;;
17253;SDS011;32542;52.832;13.816;2023-11-21T17:20:10;11.00;;;7.07;;
17253;SDS011;32542;52.832;13.816;2023-11-21T17:23:13;9.18;;;7.05;;
17253;SDS011;32542;52.832;13.816;2023-11-21T17:26:16;9.98;;;7.15;;
17253;SDS011;32542;52.832;13.816;2023-11-21T17:29:20;8.30;;;6.63;;
17253;SDS011;32542;52.832;13.816;2023-11-21T17:32:25;10.25;;;7.05;;
17253;SDS011;32542;52.832;13.816;2023-11-21T17:35:29;12.07;;;6.95;;
17253;SDS011;32542;52.832;13.816;2023-11-21T17:38:33;8.30;;;7.30;;
17253;SDS011;32542;52.832;13.816;2023-11-21T17:41:36;9.50;;;6.93;;
17253;SDS011;32542;52.832;13.816;2023-11-21T17:44:39;8.20;;;7.18;;
17253;SDS011;32542;52.832;13.816;2023-11-21T17:47:43;8.85;;;7.93;;
17253;SDS011;32542;52.832;13.816;2023-11-21T17:50:46;12.23;;;7.80;;
17253;SDS011;32542;52.832;13.816;2023-11-21T17:53:49;13.15;;;7.60;;
17253;SDS011;32542;52.832;13.816;2023-11-21T17:56:52;11.77;;;8.32;;
17253;SDS011;32542;52.832;13.816;2023-11-21T17:59:56;12.00;;;9.50;;
17253;SDS011;32542;52.832;13.816;2023-11-21T18:03:00;10.52;;;8.85;;
17253;SDS011;32542;52.832;13.816;2023-11-21T18:06:05;12.90;;;8.70;;
17253;SDS011;32542;52.832;13.816;2023-11-21T18:09:08;10.32;;;9.13;;
17253;SDS011;32542;52.832;13.816;2023-11-21T18:12:11;11.45;;;8.23;;
17253;SDS011;32542;52.832;13.816;2023-11-21T18:15:14;11.38;;;9.10;;
17253;SDS011;32542;52.832;13.816;2023-11-21T18:18:21;10.82;;;9.20;;